Terminal Aerodrome Forecast
Issued by NWS

Current Version | Previous Version | Text Only | Print | Product List | Glossary On
Versions: 1 2 3 4 5 6 7 8 9 10 11 12 13 14 15
000
FTUS45 KVEF 011135
TAFHND
TAF
KHND 011135Z 0112/0212 21025G35KT P6SM VCSH SCT100 BKN150 BKN200
     FM011300 20017G25KT P6SM FEW120 SCT150 BKN200
     FM011600 14007KT P6SM FEW120 BKN220
     FM020000 20010KT P6SM SCT120 BKN220=

USA.gov is the U.S. government's official web portal to all federal, state and local government web resources and services.